Time;durP1;ratioP1;P1;durP2;ratioP2;P2;SDS_P1;SDS_P2;PMS_P1;PMS_P2;Temp;Humidity;BMP_temperature;BMP_pressure;BME280_temperature;BME280_humidity;BME280_pressure;Samples;Min_cycle;Max_cycle;Signal;HPM_P1;HPM_P2
2022/03/21 00:02:15;;;;;;;;;;;8.70;79.50;;;;;;5050687;28;20119;-62
2022/03/21 00:04:41;;;;;;;;;;;8.70;80.50;;;;;;5050724;28;20285;-62
2022/03/21 00:07:06;;;;;;;;;;;8.70;78.90;;;;;;5050953;28;19919;-62
2022/03/21 00:09:32;;;;;;;;;;;8.70;79.30;;;;;;5050941;28;19916;-62
2022/03/21 00:11:57;;;;;;;;;;;8.70;78.80;;;;;;5050432;28;20377;-62
2022/03/21 00:14:23;;;;;;;;;;;8.70;78.80;;;;;;5050471;28;19912;-61
2022/03/21 00:16:48;;;;;;;;;;;8.70;80.50;;;;;;5050581;28;20339;-61
2022/03/21 00:19:14;;;;;;;;;;;8.60;79.00;;;;;;5050630;28;19912;-62
2022/03/21 00:21:39;;;;;;;;;;;8.60;78.30;;;;;;5050581;28;19917;-61
2022/03/21 00:24:05;;;;;;;;;;;8.60;80.00;;;;;;5050542;28;19924;-62
2022/03/21 00:26:31;;;;;;;;;;;8.60;80.80;;;;;;5049188;28;19983;-62
2022/03/21 00:28:56;;;;;;;;;;;8.60;79.10;;;;;;5050210;28;20355;-62
2022/03/21 00:31:22;;;;;;;;;;;8.60;79.40;;;;;;5050770;28;20039;-61
2022/03/21 00:33:47;;;;;;;;;;;8.60;82.90;;;;;;5050253;28;20424;-61
2022/03/21 00:36:13;;;;;;;;;;;8.50;81.20;;;;;;5049940;28;20310;-62
2022/03/21 00:38:38;;;;;;;;;;;8.60;82.00;;;;;;5049894;28;20292;-60
2022/03/21 00:41:05;;;;;;;;;;;8.60;82.00;;;;;;5050545;28;19912;-61
2022/03/21 00:43:30;;;;;;;;;;;8.60;80.20;;;;;;5050771;28;19909;-60
2022/03/21 00:45:57;;;;;;;;;;;8.60;80.80;;;;;;5050129;28;19919;-61
2022/03/21 00:48:23;;;;;;;;;;;8.50;83.40;;;;;;5049527;28;20297;-62
2022/03/21 00:50:49;;;;;;;;;;;8.50;84.50;;;;;;5049757;28;19964;-62
2022/03/21 00:53:18;;;;;;;;;;;8.50;82.00;;;;;;5050759;28;19990;-61
2022/03/21 00:55:45;;;;;;;;;;;8.50;82.70;;;;;;5050280;28;19978;-62
2022/03/21 00:58:11;;;;;;;;;;;8.50;82.20;;;;;;5050489;28;19924;-62
2022/03/21 01:00:36;;;;;;;;;;;8.50;84.00;;;;;;5049715;28;19912;-61
2022/03/21 01:03:02;;;;;;;;;;;8.50;81.70;;;;;;5049802;28;19913;-61
2022/03/21 01:05:28;;;;;;;;;;;8.50;82.90;;;;;;5050102;28;19925;-60
2022/03/21 01:07:54;;;;;;;;;;;8.40;81.10;;;;;;5049836;28;19917;-62
2022/03/21 01:10:20;;;;;;;;;;;8.40;84.90;;;;;;5050612;28;19920;-62
2022/03/21 01:12:46;;;;;;;;;;;8.50;84.90;;;;;;5050019;28;19908;-62
2022/03/21 01:15:14;;;;;;;;;;;8.40;85.40;;;;;;5049679;28;19913;-61
2022/03/21 01:17:39;;;;;;;;;;;8.40;84.60;;;;;;5048335;28;20294;-61
2022/03/21 01:20:05;;;;;;;;;;;8.40;82.20;;;;;;5033800;28;20588;-62
2022/03/21 01:22:30;;;;;;;;;;;8.40;82.80;;;;;;5050633;28;19908;-61
2022/03/21 01:24:56;;;;;;;;;;;8.40;84.40;;;;;;5049706;28;19913;-61
2022/03/21 01:27:22;;;;;;;;;;;8.40;83.50;;;;;;5049921;28;20397;-59
2022/03/21 01:29:47;;;;;;;;;;;8.40;83.40;;;;;;5049148;28;19920;-61
2022/03/21 01:32:13;;;;;;;;;;;8.50;84.30;;;;;;5049749;28;19919;-62
2022/03/21 01:34:38;;;;;;;;;;;8.50;83.30;;;;;;5050406;28;20301;-61
2022/03/21 01:37:04;;;;;;;;;;;8.50;83.10;;;;;;5050089;28;19912;-62
2022/03/21 01:39:30;;;;;;;;;;;8.60;83.30;;;;;;5049441;28;19909;-61
2022/03/21 01:41:55;;;;;;;;;;;8.60;84.00;;;;;;5049473;28;20393;-60
2022/03/21 01:44:21;;;;;;;;;;;8.60;82.40;;;;;;5049569;28;19932;-60
2022/03/21 01:46:46;;;;;;;;;;;8.70;86.40;;;;;;5049643;28;19909;-61
2022/03/21 01:49:13;;;;;;;;;;;8.70;86.10;;;;;;5052553;28;19920;-60
2022/03/21 01:51:40;;;;;;;;;;;8.70;83.20;;;;;;5053406;28;20385;-61
2022/03/21 01:56:50;;;;;;;;;;;8.70;84.50;;;;;;5052857;28;20016;-61
2022/03/21 01:59:16;;;;;;;;;;;8.70;85.60;;;;;;5053106;28;20004;-62
2022/03/21 02:01:42;;;;;;;;;;;8.70;83.80;;;;;;5053161;28;20258;-61
2022/03/21 02:04:08;;;;;;;;;;;8.70;86.20;;;;;;5053005;28;19915;-61
2022/03/21 02:06:34;;;;;;;;;;;8.60;84.90;;;;;;5052994;28;19924;-63
2022/03/21 02:09:01;;;;;;;;;;;8.60;87.10;;;;;;5052943;28;19927;-62
2022/03/21 02:11:27;;;;;;;;;;;8.60;84.60;;;;;;5052800;28;19921;-63
2022/03/21 02:13:54;;;;;;;;;;;8.50;83.80;;;;;;5052281;28;19939;-63
2022/03/21 02:16:19;;;;;;;;;;;8.60;85.20;;;;;;5052812;28;20004;-61
2022/03/21 02:18:45;;;;;;;;;;;8.60;85.90;;;;;;5052621;28;20007;-61
2022/03/21 02:21:16;;;;;;;;;;;8.60;88.20;;;;;;5051849;28;19917;-62
2022/03/21 02:24:05;;;;;;;;;;;8.60;86.10;;;;;;5051915;28;19940;-62
2022/03/21 02:26:31;;;;;;;;;;;8.70;89.20;;;;;;5052146;28;19948;-61
2022/03/21 02:28:57;;;;;;;;;;;8.60;86.90;;;;;;5052147;28;20969;-63
2022/03/21 02:31:24;;;;;;;;;;;8.50;86.30;;;;;;5053649;28;19917;-60
2022/03/21 02:33:50;;;;;;;;;;;8.50;85.60;;;;;;5052292;28;20321;-62
2022/03/21 02:36:16;;;;;;;;;;;8.50;86.60;;;;;;5052094;28;19983;-62
2022/03/21 02:38:43;;;;;;;;;;;8.50;86.50;;;;;;5052410;28;20304;-63
2022/03/21 02:41:09;;;;;;;;;;;8.50;87.30;;;;;;5051869;28;20421;-63
2022/03/21 02:43:51;;;;;;;;;;;8.50;86.20;;;;;;5052723;28;19909;-61
2022/03/21 02:46:17;;;;;;;;;;;8.50;86.30;;;;;;5052753;28;20026;-64
2022/03/21 02:48:44;;;;;;;;;;;8.60;87.20;;;;;;5051942;28;20008;-60
2022/03/21 02:51:10;;;;;;;;;;;8.60;87.50;;;;;;5051692;28;19921;-60
2022/03/21 02:53:37;;;;;;;;;;;8.60;87.30;;;;;;5051937;28;19934;-62
2022/03/21 02:56:03;;;;;;;;;;;8.60;86.40;;;;;;5052031;28;20408;-60
2022/03/21 02:58:29;;;;;;;;;;;8.50;86.80;;;;;;5052259;28;20433;-62
2022/03/21 03:01:04;;;;;;;;;;;8.60;86.40;;;;;;5050575;28;20401;-61
2022/03/21 03:03:30;;;;;;;;;;;8.60;85.90;;;;;;5051502;28;19973;-62
2022/03/21 03:05:55;;;;;;;;;;;8.60;86.60;;;;;;5051648;28;19991;-61
2022/03/21 03:08:21;;;;;;;;;;;8.60;85.80;;;;;;5052138;28;19919;-62
2022/03/21 03:10:46;;;;;;;;;;;8.60;88.60;;;;;;5084032;28;20011;-63
2022/03/21 03:13:12;;;;;;;;;;;8.70;86.80;;;;;;5051806;28;20390;-60
2022/03/21 03:15:38;;;;;;;;;;;8.70;89.50;;;;;;5051477;28;19932;-61
2022/03/21 03:18:03;;;;;;;;;;;8.70;88.50;;;;;;5051260;28;19955;-62
2022/03/21 03:20:29;;;;;;;;;;;8.60;89.60;;;;;;5051886;28;19921;-61
2022/03/21 03:22:55;;;;;;;;;;;8.70;88.60;;;;;;5051330;28;19912;-62
2022/03/21 03:25:20;;;;;;;;;;;8.70;87.90;;;;;;5052046;28;19963;-62
2022/03/21 03:27:46;;;;;;;;;;;8.70;89.50;;;;;;5050861;28;19913;-61
2022/03/21 03:30:11;;;;;;;;;;;8.80;88.30;;;;;;5051070;28;19916;-61
2022/03/21 03:32:39;;;;;;;;;;;8.80;89.10;;;;;;5051351;28;19917;-60
2022/03/21 03:35:05;;;;;;;;;;;8.80;90.50;;;;;;5051054;28;20011;-62
2022/03/21 03:37:31;;;;;;;;;;;8.80;89.00;;;;;;5051564;28;20012;-61
2022/03/21 03:39:56;;;;;;;;;;;8.80;90.20;;;;;;5050781;28;19920;-62
2022/03/21 03:42:22;;;;;;;;;;;8.80;89.50;;;;;;5050976;28;20319;-62
2022/03/21 03:44:47;;;;;;;;;;;8.80;88.30;;;;;;5050923;28;19916;-63
2022/03/21 03:47:13;;;;;;;;;;;8.80;88.70;;;;;;5051248;28;19927;-61
2022/03/21 03:49:38;;;;;;;;;;;8.80;89.50;;;;;;5051762;28;20346;-62
2022/03/21 03:52:04;;;;;;;;;;;8.80;89.70;;;;;;5051351;28;19963;-63
2022/03/21 03:54:29;;;;;;;;;;;8.80;90.50;;;;;;5050711;28;19917;-62
2022/03/21 03:56:55;;;;;;;;;;;8.90;91.10;;;;;;5050454;28;20401;-62
2022/03/21 03:59:20;;;;;;;;;;;8.90;90.60;;;;;;5051115;28;19913;-62
2022/03/21 04:01:46;;;;;;;;;;;8.90;90.50;;;;;;5051106;28;19920;-62
2022/03/21 04:04:11;;;;;;;;;;;8.90;90.60;;;;;;5051327;28;19954;-62
2022/03/21 04:06:37;;;;;;;;;;;9.00;91.10;;;;;;5049177;28;19917;-61
2022/03/21 04:09:02;;;;;;;;;;;9.00;90.00;;;;;;5050375;28;19913;-62
2022/03/21 04:11:28;;;;;;;;;;;9.00;90.10;;;;;;5050384;28;19921;-62
2022/03/21 04:13:53;;;;;;;;;;;9.00;90.90;;;;;;5050420;28;19961;-62
2022/03/21 04:16:19;;;;;;;;;;;9.00;89.70;;;;;;5050993;28;20445;-62
2022/03/21 04:18:44;;;;;;;;;;;9.00;90.10;;;;;;5050609;28;19913;-61
2022/03/21 04:21:10;;;;;;;;;;;9.00;90.40;;;;;;5049388;28;19917;-62
2022/03/21 04:23:35;;;;;;;;;;;9.00;90.50;;;;;;5049923;28;19913;-60
2022/03/21 04:26:01;;;;;;;;;;;9.00;90.10;;;;;;5050502;28;19921;-63
2022/03/21 04:28:26;;;;;;;;;;;9.00;90.60;;;;;;5051189;28;19920;-60
2022/03/21 04:30:52;;;;;;;;;;;9.00;90.90;;;;;;5050559;28;19928;-62
2022/03/21 04:33:17;;;;;;;;;;;9.00;91.10;;;;;;5050162;28;20754;-60
2022/03/21 04:35:44;;;;;;;;;;;9.00;90.90;;;;;;5050135;28;19920;-59
2022/03/21 04:38:13;;;;;;;;;;;9.00;90.30;;;;;;5050338;28;19952;-58
2022/03/21 04:40:46;;;;;;;;;;;9.00;91.00;;;;;;5047254;28;20377;-62
2022/03/21 04:43:13;;;;;;;;;;;9.00;92.30;;;;;;5050098;28;19912;-59
2022/03/21 04:45:40;;;;;;;;;;;9.00;90.80;;;;;;5049930;28;19967;-63
2022/03/21 04:48:05;;;;;;;;;;;9.00;91.40;;;;;;5058411;28;20350;-62
2022/03/21 04:50:31;;;;;;;;;;;9.00;91.80;;;;;;5050109;28;19974;-64
2022/03/21 04:52:57;;;;;;;;;;;9.00;91.20;;;;;;5049523;28;20025;-61
2022/03/21 04:55:23;;;;;;;;;;;9.00;91.60;;;;;;5051059;28;19960;-63
2022/03/21 04:57:49;;;;;;;;;;;9.00;91.60;;;;;;5050211;28;19999;-62
2022/03/21 05:00:14;;;;;;;;;;;9.10;91.70;;;;;;5049942;28;19920;-62
2022/03/21 05:02:40;;;;;;;;;;;9.10;91.90;;;;;;5050023;28;19913;-62
2022/03/21 05:05:06;;;;;;;;;;;9.10;92.20;;;;;;5049835;28;19921;-62
2022/03/21 05:07:31;;;;;;;;;;;9.10;91.70;;;;;;5050175;28;20003;-64
2022/03/21 05:09:57;;;;;;;;;;;9.10;91.40;;;;;;5050125;28;19920;-64
2022/03/21 05:12:23;;;;;;;;;;;9.10;91.60;;;;;;5049697;28;19924;-63
2022/03/21 05:14:48;;;;;;;;;;;9.10;91.70;;;;;;5049926;28;19947;-65
2022/03/21 05:17:17;;;;;;;;;;;9.10;92.20;;;;;;5050242;28;19921;-63
2022/03/21 05:19:43;;;;;;;;;;;9.10;91.60;;;;;;5050400;28;19920;-63
2022/03/21 05:22:09;;;;;;;;;;;9.10;92.80;;;;;;5049932;28;19909;-63
2022/03/21 05:32:48;;;;;;;;;;;9.20;92.40;;;;;;5053478;28;19924;-61
2022/03/21 05:37:57;;;;;;;;;;;9.10;93.30;;;;;;5053652;28;19916;-62
2022/03/21 05:40:31;;;;;;;;;;;9.20;92.80;;;;;;5054095;28;20278;-62
2022/03/21 05:42:57;;;;;;;;;;;9.20;92.00;;;;;;5053099;28;19917;-62
2022/03/21 05:45:23;;;;;;;;;;;9.20;92.50;;;;;;5053273;28;20027;-62
2022/03/21 05:50:36;;;;;;;;;;;9.20;93.50;;;;;;5052721;28;20014;-60
2022/03/21 05:53:02;;;;;;;;;;;9.20;93.20;;;;;;5053592;28;19913;-61
2022/03/21 05:55:29;;;;;;;;;;;9.20;93.30;;;;;;5053978;28;20348;-63
2022/03/21 05:57:55;;;;;;;;;;;9.20;93.30;;;;;;5048299;28;19912;-61
2022/03/21 06:00:20;;;;;;;;;;;9.20;93.80;;;;;;5053193;28;19912;-62
2022/03/21 06:02:46;;;;;;;;;;;9.10;93.40;;;;;;5052356;28;19920;-61
2022/03/21 06:05:11;;;;;;;;;;;9.10;93.30;;;;;;5052072;28;19913;-63
2022/03/21 06:07:37;;;;;;;;;;;9.10;93.80;;;;;;5053549;28;19912;-62
2022/03/21 06:10:02;;;;;;;;;;;9.10;94.20;;;;;;5052086;28;19944;-62
2022/03/21 06:12:30;;;;;;;;;;;9.10;92.90;;;;;;5052145;28;19919;-61
2022/03/21 06:14:56;;;;;;;;;;;9.20;94.40;;;;;;5052486;28;19921;-62
2022/03/21 06:17:21;;;;;;;;;;;9.10;94.10;;;;;;5052231;28;19920;-62
2022/03/21 06:19:47;;;;;;;;;;;9.10;94.60;;;;;;5051799;28;19936;-60
2022/03/21 06:22:13;;;;;;;;;;;9.10;94.50;;;;;;5052586;28;19941;-60
2022/03/21 06:24:39;;;;;;;;;;;9.00;95.10;;;;;;5052374;28;20374;-62
2022/03/21 06:27:04;;;;;;;;;;;9.00;94.00;;;;;;5051744;28;19975;-60
2022/03/21 06:29:30;;;;;;;;;;;9.00;93.50;;;;;;5051754;28;20029;-60
2022/03/21 06:31:55;;;;;;;;;;;9.00;94.90;;;;;;5052077;28;19924;-61
2022/03/21 06:34:21;;;;;;;;;;;9.00;94.20;;;;;;5051482;28;19913;-59
2022/03/21 06:36:46;;;;;;;;;;;9.00;94.50;;;;;;5051611;28;19913;-60
2022/03/21 06:39:12;;;;;;;;;;;9.00;94.70;;;;;;5052158;28;19975;-61
2022/03/21 06:41:38;;;;;;;;;;;9.00;93.50;;;;;;5052152;28;20316;-61
2022/03/21 06:44:04;;;;;;;;;;;9.00;94.00;;;;;;5051137;28;19920;-61
2022/03/21 06:46:29;;;;;;;;;;;9.00;94.20;;;;;;5045536;28;19920;-60
2022/03/21 06:48:55;;;;;;;;;;;9.00;94.10;;;;;;5046841;28;19917;-62
2022/03/21 06:51:20;;;;;;;;;;;9.10;94.20;;;;;;5046899;28;20441;-63
2022/03/21 06:53:45;;;;;;;;;;;9.20;93.90;;;;;;5049464;28;19913;-63
2022/03/21 06:56:11;;;;;;;;;;;9.20;94.40;;;;;;5037957;28;19986;-68
2022/03/21 06:58:36;;;;;;;;;;;9.30;94.30;;;;;;5052032;28;20039;-69
2022/03/21 07:01:02;;;;;;;;;;;9.30;94.50;;;;;;5037418;28;20362;-69
2022/03/21 07:03:28;;;;;;;;;;;9.40;95.40;;;;;;5044706;28;19917;-66
2022/03/21 07:05:54;;;;;;;;;;;9.50;95.40;;;;;;5047998;28;20400;-67
2022/03/21 07:08:20;;;;;;;;;;;9.60;94.60;;;;;;5048182;28;20308;-65
2022/03/21 07:10:45;;;;;;;;;;;9.60;94.60;;;;;;5050434;28;20050;-65
2022/03/21 07:13:11;;;;;;;;;;;9.70;94.20;;;;;;5049175;28;19966;-66
2022/03/21 07:15:37;;;;;;;;;;;9.80;95.20;;;;;;5047864;28;20075;-66
2022/03/21 07:18:03;;;;;;;;;;;9.80;94.80;;;;;;5047569;28;19956;-65
2022/03/21 07:20:29;;;;;;;;;;;9.90;94.10;;;;;;5048044;28;19913;-66
2022/03/21 07:22:55;;;;;;;;;;;9.90;94.20;;;;;;5049996;28;19916;-68
2022/03/21 07:25:21;;;;;;;;;;;10.00;95.30;;;;;;5048649;28;20395;-65
2022/03/21 07:27:46;;;;;;;;;;;10.10;94.90;;;;;;5040911;28;19951;-65
2022/03/21 07:30:12;;;;;;;;;;;10.10;95.10;;;;;;5044867;28;20258;-65
2022/03/21 07:32:42;;;;;;;;;;;10.20;95.20;;;;;;5044482;28;19999;-66
2022/03/21 07:35:08;;;;;;;;;;;10.20;95.10;;;;;;5038569;28;19963;-67
2022/03/21 07:37:43;;;;;;;;;;;10.30;95.50;;;;;;5048779;28;19923;-66
2022/03/21 07:40:11;;;;;;;;;;;10.40;94.80;;;;;;5046807;28;20361;-67
2022/03/21 07:42:37;;;;;;;;;;;10.50;95.40;;;;;;5045865;28;20310;-64
2022/03/21 07:47:47;;;;;;;;;;;10.70;95.10;;;;;;5047854;28;19951;-64
2022/03/21 07:50:13;;;;;;;;;;;10.80;94.90;;;;;;5045391;28;19925;-65
2022/03/21 07:52:38;;;;;;;;;;;10.80;94.80;;;;;;5049126;28;20404;-64
2022/03/21 07:55:04;;;;;;;;;;;10.90;94.80;;;;;;5047371;28;19913;-66
2022/03/21 07:57:29;;;;;;;;;;;11.00;94.50;;;;;;5047054;28;19929;-65
2022/03/21 07:59:55;;;;;;;;;;;11.00;94.90;;;;;;5045661;28;20483;-65
2022/03/21 08:02:21;;;;;;;;;;;11.00;94.70;;;;;;5046503;28;20002;-66
2022/03/21 08:04:50;;;;;;;;;;;11.10;94.30;;;;;;5048349;28;20373;-66
2022/03/21 08:07:15;;;;;;;;;;;11.10;94.30;;;;;;5047428;28;20263;-66
2022/03/21 08:09:41;;;;;;;;;;;11.10;94.40;;;;;;5045006;28;19923;-67
2022/03/21 08:12:07;;;;;;;;;;;11.20;94.60;;;;;;5046419;28;19917;-66
2022/03/21 08:14:32;;;;;;;;;;;11.20;94.10;;;;;;5046366;28;19912;-67
2022/03/21 08:16:59;;;;;;;;;;;11.20;94.20;;;;;;5046537;28;19916;-67
2022/03/21 08:19:25;;;;;;;;;;;11.20;94.10;;;;;;5048542;28;19970;-66
2022/03/21 08:21:52;;;;;;;;;;;11.20;93.90;;;;;;5046577;28;20377;-66
2022/03/21 08:24:18;;;;;;;;;;;11.30;93.90;;;;;;5046825;28;20423;-68
2022/03/21 08:26:44;;;;;;;;;;;11.30;93.70;;;;;;5046739;28;19944;-65
2022/03/21 08:29:10;;;;;;;;;;;11.30;93.90;;;;;;5040055;28;20389;-68
2022/03/21 08:31:35;;;;;;;;;;;11.30;93.70;;;;;;5047868;28;19928;-67
2022/03/21 08:34:03;;;;;;;;;;;11.40;94.00;;;;;;5047421;28;19917;-67
2022/03/21 08:36:29;;;;;;;;;;;11.40;94.10;;;;;;5046759;28;19919;-68
2022/03/21 08:38:54;;;;;;;;;;;11.40;93.80;;;;;;5046961;28;20011;-69
2022/03/21 08:41:21;;;;;;;;;;;11.50;93.60;;;;;;5047247;28;19971;-68
2022/03/21 08:43:47;;;;;;;;;;;11.60;93.40;;;;;;5048437;28;20397;-67
2022/03/21 08:46:13;;;;;;;;;;;11.60;93.40;;;;;;5046996;28;19913;-68
2022/03/21 08:51:23;;;;;;;;;;;11.60;92.90;;;;;;5045460;28;20030;-67
2022/03/21 08:53:48;;;;;;;;;;;11.80;93.10;;;;;;5045803;28;19921;-68
2022/03/21 08:56:14;;;;;;;;;;;11.80;92.60;;;;;;5046271;28;19929;-67
2022/03/21 08:58:39;;;;;;;;;;;11.90;92.70;;;;;;5050554;28;19913;-67
2022/03/21 09:01:05;;;;;;;;;;;11.90;92.70;;;;;;5050337;28;19951;-68
2022/03/21 09:03:30;;;;;;;;;;;12.00;92.60;;;;;;5050966;28;19930;-67
2022/03/21 09:05:56;;;;;;;;;;;12.10;92.50;;;;;;5050864;28;19943;-67
2022/03/21 09:08:21;;;;;;;;;;;12.10;92.50;;;;;;5049453;28;20004;-68
2022/03/21 09:10:48;;;;;;;;;;;12.20;91.90;;;;;;5051880;28;19962;-67
2022/03/21 09:13:14;;;;;;;;;;;12.20;92.30;;;;;;5051945;28;19913;-67
2022/03/21 09:15:41;;;;;;;;;;;12.20;92.20;;;;;;5050236;28;20277;-66
2022/03/21 09:18:06;;;;;;;;;;;12.20;92.00;;;;;;5050577;28;20262;-67
2022/03/21 09:20:32;;;;;;;;;;;12.30;91.70;;;;;;5050976;28;20431;-67
2022/03/21 09:22:57;;;;;;;;;;;12.40;91.60;;;;;;5051577;28;19917;-68
2022/03/21 09:25:23;;;;;;;;;;;12.40;91.80;;;;;;5051892;28;19920;-65
2022/03/21 09:27:48;;;;;;;;;;;12.50;91.40;;;;;;5047263;28;19925;-67
2022/03/21 09:30:14;;;;;;;;;;;12.60;91.60;;;;;;5049317;28;19921;-68
2022/03/21 09:32:39;;;;;;;;;;;12.60;91.70;;;;;;5049215;28;20416;-67
2022/03/21 09:35:05;;;;;;;;;;;12.80;91.40;;;;;;5050556;28;19912;-68
2022/03/21 09:37:32;;;;;;;;;;;12.80;91.20;;;;;;5051668;28;19956;-67
2022/03/21 09:39:58;;;;;;;;;;;12.90;91.10;;;;;;5052864;28;19941;-67
2022/03/21 09:42:24;;;;;;;;;;;13.00;91.20;;;;;;5050880;28;19959;-67
2022/03/21 09:44:53;;;;;;;;;;;13.00;91.10;;;;;;5049506;28;19917;-66
2022/03/21 09:50:09;;;;;;;;;;;13.20;90.70;;;;;;5041395;28;20012;-68
2022/03/21 09:52:34;;;;;;;;;;;13.20;90.90;;;;;;5045426;28;19917;-67
2022/03/21 09:55:00;;;;;;;;;;;13.30;90.90;;;;;;5045394;28;19912;-68
2022/03/21 09:57:26;;;;;;;;;;;13.20;90.80;;;;;;5044694;28;20390;-68
2022/03/21 09:59:52;;;;;;;;;;;13.20;90.60;;;;;;5042519;28;19917;-68
2022/03/21 10:02:18;;;;;;;;;;;13.20;90.80;;;;;;5039868;28;19917;-69
2022/03/21 10:04:43;;;;;;;;;;;13.20;90.20;;;;;;5039815;28;19913;-68
2022/03/21 10:07:10;;;;;;;;;;;13.30;90.60;;;;;;5044923;28;19924;-68
2022/03/21 10:09:36;;;;;;;;;;;13.40;90.70;;;;;;5042348;28;20415;-69
2022/03/21 10:12:03;;;;;;;;;;;13.40;90.30;;;;;;5036338;28;20504;-67
2022/03/21 10:14:32;;;;;;;;;;;13.50;90.60;;;;;;5040695;28;19960;-68
2022/03/21 10:17:08;;;;;;;;;;;13.70;88.60;;;;;;5037776;28;19950;-70
2022/03/21 10:19:42;;;;;;;;;;;13.80;89.00;;;;;;5037594;28;20538;-68
2022/03/21 10:22:08;;;;;;;;;;;13.80;88.80;;;;;;5044319;28;20520;-69
2022/03/21 10:24:35;;;;;;;;;;;13.90;88.00;;;;;;5037401;28;19919;-67
2022/03/21 10:27:00;;;;;;;;;;;14.00;88.20;;;;;;5043741;28;19913;-69
2022/03/21 10:29:26;;;;;;;;;;;14.00;88.10;;;;;;5049092;28;19920;-69
2022/03/21 10:31:52;;;;;;;;;;;14.10;87.00;;;;;;5047578;28;19932;-69
2022/03/21 10:34:19;;;;;;;;;;;14.10;86.80;;;;;;5048750;28;20348;-68
2022/03/21 10:36:57;;;;;;;;;;;14.20;87.80;;;;;;5047884;28;20015;-68
2022/03/21 10:39:23;;;;;;;;;;;14.20;86.70;;;;;;5046366;28;19951;-68
2022/03/21 10:41:53;;;;;;;;;;;14.20;87.20;;;;;;5048789;28;19964;-69
2022/03/21 10:44:20;;;;;;;;;;;14.40;86.50;;;;;;5048762;28;20007;-69
2022/03/21 10:46:50;;;;;;;;;;;14.40;86.40;;;;;;5049737;28;20294;-68
2022/03/21 10:49:25;;;;;;;;;;;14.40;85.00;;;;;;5049105;28;20438;-68
2022/03/21 10:51:53;;;;;;;;;;;14.40;85.00;;;;;;5049721;28;19921;-69
2022/03/21 10:54:34;;;;;;;;;;;14.30;84.50;;;;;;5047935;28;19920;-69
2022/03/21 10:56:59;;;;;;;;;;;14.30;84.50;;;;;;5047006;28;19928;-69
2022/03/21 10:59:25;;;;;;;;;;;14.30;84.20;;;;;;5048715;28;19919;-69
2022/03/21 11:02:08;;;;;;;;;;;14.40;84.90;;;;;;5050129;28;19920;-68
2022/03/21 11:04:33;;;;;;;;;;;14.50;85.40;;;;;;5049870;28;19920;-67
2022/03/21 11:06:59;;;;;;;;;;;14.60;83.80;;;;;;5048372;28;19920;-68
2022/03/21 11:09:25;;;;;;;;;;;14.70;84.50;;;;;;5048003;28;19912;-68
2022/03/21 11:11:51;;;;;;;;;;;14.70;84.40;;;;;;5048116;28;19920;-67
2022/03/21 11:14:16;;;;;;;;;;;14.70;85.00;;;;;;5048200;28;19956;-67
2022/03/21 11:16:42;;;;;;;;;;;14.60;84.00;;;;;;5049733;28;19967;-68
2022/03/21 11:19:07;;;;;;;;;;;14.60;84.30;;;;;;5047965;28;19941;-66
2022/03/21 11:21:33;;;;;;;;;;;14.70;84.80;;;;;;5044832;28;20280;-69
2022/03/21 11:23:59;;;;;;;;;;;14.70;82.40;;;;;;5047365;28;19916;-67
2022/03/21 11:26:31;;;;;;;;;;;14.80;82.10;;;;;;5047529;28;20378;-67
2022/03/21 11:29:16;;;;;;;;;;;14.90;83.50;;;;;;5047769;28;19924;-66
2022/03/21 11:32:00;;;;;;;;;;;14.90;82.30;;;;;;5049668;28;19975;-67
2022/03/21 11:34:34;;;;;;;;;;;14.90;82.70;;;;;;5048611;28;19916;-66
2022/03/21 11:36:59;;;;;;;;;;;14.80;83.20;;;;;;5047078;28;19921;-66
2022/03/21 11:39:26;;;;;;;;;;;14.80;82.10;;;;;;5046769;28;19978;-66
2022/03/21 11:41:55;;;;;;;;;;;15.00;82.20;;;;;;5047322;28;19920;-65
2022/03/21 11:44:21;;;;;;;;;;;15.10;82.50;;;;;;5047923;28;19960;-67
2022/03/21 11:46:47;;;;;;;;;;;15.10;81.90;;;;;;5050672;28;20350;-66
2022/03/21 11:49:16;;;;;;;;;;;15.10;81.70;;;;;;5048383;28;19962;-66
2022/03/21 11:51:43;;;;;;;;;;;15.10;81.40;;;;;;5043869;28;19956;-65
2022/03/21 11:54:24;;;;;;;;;;;15.10;81.40;;;;;;5047055;28;19913;-67
2022/03/21 11:56:51;;;;;;;;;;;15.20;80.90;;;;;;5047591;28;19920;-67
2022/03/21 11:59:40;;;;;;;;;;;15.20;81.20;;;;;;5047617;28;19927;-66
2022/03/21 12:02:11;;;;;;;;;;;15.30;81.30;;;;;;5050958;28;20297;-65
2022/03/21 12:04:37;;;;;;;;;;;15.30;80.90;;;;;;5051362;28;19942;-67
2022/03/21 12:07:12;;;;;;;;;;;15.30;80.50;;;;;;5046980;28;19947;-67
2022/03/21 12:09:44;;;;;;;;;;;15.40;80.80;;;;;;5047213;28;19923;-69
2022/03/21 12:12:12;;;;;;;;;;;15.60;80.90;;;;;;5047458;28;19921;-68
2022/03/21 12:14:43;;;;;;;;;;;15.70;79.60;;;;;;5047156;28;19913;-69
2022/03/21 12:17:12;;;;;;;;;;;15.90;79.60;;;;;;5050025;28;20008;-68
2022/03/21 12:22:30;;;;;;;;;;;15.90;78.40;;;;;;5049811;28;20362;-66
2022/03/21 12:24:57;;;;;;;;;;;15.80;77.70;;;;;;5049987;28;19913;-68
2022/03/21 12:27:45;;;;;;;;;;;15.80;77.50;;;;;;5050192;28;19917;-69
2022/03/21 12:30:20;;;;;;;;;;;15.90;78.40;;;;;;5049682;28;19913;-69
2022/03/21 12:33:01;;;;;;;;;;;15.80;77.00;;;;;;5049856;28;19913;-70
2022/03/21 12:35:32;;;;;;;;;;;15.70;76.40;;;;;;5050157;28;19909;-69
2022/03/21 12:38:01;;;;;;;;;;;15.70;76.60;;;;;;5049559;28;19912;-69
2022/03/21 12:40:27;;;;;;;;;;;15.70;76.60;;;;;;5050582;28;19920;-67
2022/03/21 12:42:54;;;;;;;;;;;15.70;75.40;;;;;;5048204;28;20040;-68
2022/03/21 12:45:20;;;;;;;;;;;15.70;76.40;;;;;;5049891;28;20444;-68
2022/03/21 12:47:46;;;;;;;;;;;15.80;75.30;;;;;;5049838;28;19909;-68
2022/03/21 12:50:22;;;;;;;;;;;16.00;75.70;;;;;;5051659;28;19978;-67
2022/03/21 12:52:52;;;;;;;;;;;16.00;75.10;;;;;;5046494;28;19959;-66
2022/03/21 12:55:17;;;;;;;;;;;15.90;75.20;;;;;;5049489;28;19920;-66
2022/03/21 12:58:12;;;;;;;;;;;15.90;75.60;;;;;;5050067;28;20328;-66
2022/03/21 13:00:39;;;;;;;;;;;16.00;74.70;;;;;;5049503;28;19913;-67
2022/03/21 13:03:11;;;;;;;;;;;16.10;75.80;;;;;;5049465;28;19916;-65
2022/03/21 13:11:27;;;;;;;;;;;15.90;74.90;;;;;;5035508;28;20367;-66
2022/03/21 13:13:53;;;;;;;;;;;15.90;75.30;;;;;;5049589;28;19909;-66
2022/03/21 13:16:20;;;;;;;;;;;15.90;75.30;;;;;;5050233;28;19938;-67
2022/03/21 13:18:45;;;;;;;;;;;15.80;74.90;;;;;;5049673;28;19920;-67
2022/03/21 13:21:11;;;;;;;;;;;15.80;75.20;;;;;;5049035;28;19913;-65
2022/03/21 13:23:37;;;;;;;;;;;15.90;75.80;;;;;;5049246;28;20006;-66
2022/03/21 13:26:17;;;;;;;;;;;16.00;74.50;;;;;;5049170;28;20025;-64
2022/03/21 13:28:43;;;;;;;;;;;16.00;74.90;;;;;;5046515;28;19944;-67
2022/03/21 13:31:11;;;;;;;;;;;15.90;75.20;;;;;;5049282;28;20010;-66
2022/03/21 13:33:38;;;;;;;;;;;16.00;75.30;;;;;;5049275;28;19915;-67
2022/03/21 13:36:04;;;;;;;;;;;16.00;76.30;;;;;;5049025;28;19959;-65
2022/03/21 13:38:31;;;;;;;;;;;16.20;75.10;;;;;;5049542;28;19912;-65
2022/03/21 13:40:56;;;;;;;;;;;16.20;74.80;;;;;;5048749;28;19924;-67
2022/03/21 13:43:23;;;;;;;;;;;16.20;74.00;;;;;;5048092;28;19913;-65
2022/03/21 13:45:48;;;;;;;;;;;16.20;73.90;;;;;;5052556;28;19916;-67
2022/03/21 13:48:30;;;;;;;;;;;16.20;74.20;;;;;;5052456;28;19912;-67
2022/03/21 13:51:04;;;;;;;;;;;16.20;74.50;;;;;;5052419;28;19917;-66
2022/03/21 13:53:30;;;;;;;;;;;16.20;73.00;;;;;;5052534;28;20016;-67
2022/03/21 13:55:56;;;;;;;;;;;16.10;73.70;;;;;;5053453;28;20007;-65
2022/03/21 13:58:29;;;;;;;;;;;16.10;72.80;;;;;;5051477;28;19916;-66
2022/03/21 14:00:56;;;;;;;;;;;16.10;74.50;;;;;;5052906;28;19909;-65
2022/03/21 14:03:32;;;;;;;;;;;16.20;74.20;;;;;;5052997;28;19912;-67
2022/03/21 14:06:01;;;;;;;;;;;16.30;74.00;;;;;;5052191;28;20153;-68
2022/03/21 14:08:27;;;;;;;;;;;16.30;73.70;;;;;;5052672;28;20502;-68
2022/03/21 14:11:00;;;;;;;;;;;16.40;71.50;;;;;;5053534;28;20016;-67
2022/03/21 14:13:26;;;;;;;;;;;16.50;73.70;;;;;;5052121;28;19916;-67
2022/03/21 14:15:52;;;;;;;;;;;16.70;74.10;;;;;;5052652;28;19972;-67
2022/03/21 14:18:21;;;;;;;;;;;16.70;73.50;;;;;;5052379;28;19924;-67
2022/03/21 14:20:46;;;;;;;;;;;16.60;72.20;;;;;;5052686;28;19916;-67
2022/03/21 14:23:12;;;;;;;;;;;16.60;71.90;;;;;;5053205;28;20046;-68
2022/03/21 14:28:21;;;;;;;;;;;16.50;72.80;;;;;;5053424;28;19920;-67
2022/03/21 14:30:47;;;;;;;;;;;16.50;72.90;;;;;;5052353;28;19921;-67
2022/03/21 14:33:12;;;;;;;;;;;16.60;73.50;;;;;;5052248;28;20340;-66
2022/03/21 14:35:38;;;;;;;;;;;16.70;72.80;;;;;;5052492;28;19916;-67
2022/03/21 14:38:03;;;;;;;;;;;16.80;72.80;;;;;;5052199;28;20050;-67
2022/03/21 14:40:29;;;;;;;;;;;16.80;73.30;;;;;;5052922;28;20285;-67
2022/03/21 14:42:54;;;;;;;;;;;16.60;70.70;;;;;;5052669;28;19919;-67
2022/03/21 14:45:20;;;;;;;;;;;16.60;72.40;;;;;;5052003;28;20285;-66
2022/03/21 14:47:45;;;;;;;;;;;16.60;72.10;;;;;;5051670;28;20000;-66
2022/03/21 14:50:11;;;;;;;;;;;16.60;72.10;;;;;;5052217;28;19944;-64
2022/03/21 14:52:37;;;;;;;;;;;16.60;72.70;;;;;;5053006;28;19915;-66
2022/03/21 14:55:03;;;;;;;;;;;16.70;72.40;;;;;;5051560;28;20034;-66
2022/03/21 14:57:29;;;;;;;;;;;16.70;72.70;;;;;;5050969;28;19920;-67
2022/03/21 14:59:54;;;;;;;;;;;16.80;71.90;;;;;;5052327;28;19923;-67